sensor_id;sensor_type;location;lat;lon;timestamp;P1;durP1;ratioP1;P2;durP2;ratioP2
76595;SDS011;65485;45.990;18.670;2024-02-26T04:49:26;29.97;;;16.27;;
76595;SDS011;65485;45.990;18.670;2024-02-26T04:52:28;33.83;;;18.40;;
76595;SDS011;65485;45.990;18.670;2024-02-26T04:55:31;31.70;;;17.10;;
76595;SDS011;65485;45.990;18.670;2024-02-26T04:58:34;31.90;;;18.58;;
76595;SDS011;65485;45.990;18.670;2024-02-26T05:01:37;36.55;;;18.38;;
76595;SDS011;65485;45.990;18.670;2024-02-26T05:04:43;34.70;;;19.03;;
76595;SDS011;65485;45.990;18.670;2024-02-26T05:07:48;28.10;;;16.80;;
76595;SDS011;65485;45.990;18.670;2024-02-26T05:10:51;36.53;;;20.25;;
76595;SDS011;65485;45.990;18.670;2024-02-26T05:13:53;28.08;;;17.63;;
76595;SDS011;65485;45.990;18.670;2024-02-26T05:16:56;26.65;;;16.20;;
76595;SDS011;65485;45.990;18.670;2024-02-26T05:19:58;28.83;;;17.73;;
76595;SDS011;65485;45.990;18.670;2024-02-26T05:23:01;26.53;;;16.33;;
76595;SDS011;65485;45.990;18.670;2024-02-26T05:26:04;27.35;;;16.50;;
76595;SDS011;65485;45.990;18.670;2024-02-26T05:29:06;27.65;;;16.55;;
76595;SDS011;65485;45.990;18.670;2024-02-26T05:32:09;28.50;;;15.75;;
76595;SDS011;65485;45.990;18.670;2024-02-26T05:35:12;28.33;;;15.47;;
76595;SDS011;65485;45.990;18.670;2024-02-26T05:38:15;36.17;;;18.00;;
76595;SDS011;65485;45.990;18.670;2024-02-26T05:41:18;25.63;;;15.25;;
76595;SDS011;65485;45.990;18.670;2024-02-26T05:44:26;25.88;;;16.13;;
76595;SDS011;65485;45.990;18.670;2024-02-26T05:47:29;29.48;;;16.20;;
76595;SDS011;65485;45.990;18.670;2024-02-26T05:50:31;44.00;;;21.10;;
76595;SDS011;65485;45.990;18.670;2024-02-26T05:53:34;33.85;;;18.17;;
76595;SDS011;65485;45.990;18.670;2024-02-26T05:56:36;36.38;;;19.10;;
76595;SDS011;65485;45.990;18.670;2024-02-26T05:59:39;38.22;;;20.75;;
76595;SDS011;65485;45.990;18.670;2024-02-26T06:02:42;33.60;;;18.58;;
76595;SDS011;65485;45.990;18.670;2024-02-26T06:05:44;32.37;;;18.73;;
76595;SDS011;65485;45.990;18.670;2024-02-26T06:08:47;32.78;;;16.95;;
76595;SDS011;65485;45.990;18.670;2024-02-26T06:11:49;35.50;;;18.65;;
76595;SDS011;65485;45.990;18.670;2024-02-26T06:14:52;31.50;;;16.95;;
76595;SDS011;65485;45.990;18.670;2024-02-26T06:17:55;31.30;;;16.50;;
76595;SDS011;65485;45.990;18.670;2024-02-26T06:20:57;28.23;;;15.77;;
76595;SDS011;65485;45.990;18.670;2024-02-26T06:24:00;30.83;;;16.85;;
76595;SDS011;65485;45.990;18.670;2024-02-26T06:27:18;25.35;;;16.98;;
76595;SDS011;65485;45.990;18.670;2024-02-26T06:30:20;29.80;;;16.15;;
76595;SDS011;65485;45.990;18.670;2024-02-26T06:33:29;29.60;;;16.85;;
76595;SDS011;65485;45.990;18.670;2024-02-26T06:36:40;28.93;;;15.87;;
76595;SDS011;65485;45.990;18.670;2024-02-26T06:39:42;28.02;;;16.92;;
76595;SDS011;65485;45.990;18.670;2024-02-26T06:42:45;28.95;;;16.98;;
76595;SDS011;65485;45.990;18.670;2024-02-26T06:45:50;28.83;;;15.68;;
76595;SDS011;65485;45.990;18.670;2024-02-26T06:48:53;28.35;;;16.65;;
76595;SDS011;65485;45.990;18.670;2024-02-26T06:51:57;30.80;;;17.13;;
76595;SDS011;65485;45.990;18.670;2024-02-26T06:54:59;25.50;;;16.38;;
76595;SDS011;65485;45.990;18.670;2024-02-26T06:58:03;31.27;;;16.88;;
76595;SDS011;65485;45.990;18.670;2024-02-26T07:01:05;29.30;;;17.60;;
76595;SDS011;65485;45.990;18.670;2024-02-26T07:04:17;32.20;;;17.55;;
76595;SDS011;65485;45.990;18.670;2024-02-26T07:07:24;29.60;;;18.07;;
76595;SDS011;65485;45.990;18.670;2024-02-26T07:10:27;32.13;;;19.17;;
76595;SDS011;65485;45.990;18.670;2024-02-26T07:13:30;28.90;;;18.50;;
76595;SDS011;65485;45.990;18.670;2024-02-26T07:16:33;29.00;;;18.50;;
76595;SDS011;65485;45.990;18.670;2024-02-26T07:19:36;30.92;;;19.02;;
76595;SDS011;65485;45.990;18.670;2024-02-26T07:22:38;32.87;;;19.73;;
76595;SDS011;65485;45.990;18.670;2024-02-26T07:25:41;30.58;;;19.45;;
76595;SDS011;65485;45.990;18.670;2024-02-26T07:28:49;31.40;;;19.27;;
76595;SDS011;65485;45.990;18.670;2024-02-26T07:31:52;31.33;;;19.20;;
76595;SDS011;65485;45.990;18.670;2024-02-26T07:34:55;26.55;;;18.80;;
76595;SDS011;65485;45.990;18.670;2024-02-26T07:37:57;30.60;;;18.60;;
76595;SDS011;65485;45.990;18.670;2024-02-26T07:41:03;27.08;;;17.60;;
76595;SDS011;65485;45.990;18.670;2024-02-26T07:44:07;24.40;;;15.32;;
76595;SDS011;65485;45.990;18.670;2024-02-26T07:47:16;23.23;;;13.32;;
76595;SDS011;65485;45.990;18.670;2024-02-26T07:50:22;22.02;;;13.02;;
76595;SDS011;65485;45.990;18.670;2024-02-26T07:53:24;19.33;;;13.27;;
76595;SDS011;65485;45.990;18.670;2024-02-26T07:56:27;22.52;;;13.25;;
76595;SDS011;65485;45.990;18.670;2024-02-26T07:59:29;23.33;;;13.30;;
76595;SDS011;65485;45.990;18.670;2024-02-26T08:02:32;21.58;;;12.00;;
76595;SDS011;65485;45.990;18.670;2024-02-26T08:05:36;19.67;;;12.10;;
76595;SDS011;65485;45.990;18.670;2024-02-26T08:08:45;18.57;;;13.13;;
76595;SDS011;65485;45.990;18.670;2024-02-26T08:11:47;14.82;;;10.75;;
76595;SDS011;65485;45.990;18.670;2024-02-26T08:14:51;20.10;;;11.50;;
76595;SDS011;65485;45.990;18.670;2024-02-26T08:17:53;15.32;;;11.25;;
76595;SDS011;65485;45.990;18.670;2024-02-26T08:20:59;15.82;;;10.35;;
76595;SDS011;65485;45.990;18.670;2024-02-26T08:24:02;17.33;;;11.13;;
76595;SDS011;65485;45.990;18.670;2024-02-26T08:27:05;17.67;;;11.68;;
76595;SDS011;65485;45.990;18.670;2024-02-26T08:30:07;17.75;;;12.13;;
76595;SDS011;65485;45.990;18.670;2024-02-26T08:33:10;15.43;;;10.05;;
76595;SDS011;65485;45.990;18.670;2024-02-26T08:36:14;17.17;;;10.73;;
76595;SDS011;65485;45.990;18.670;2024-02-26T08:39:16;14.80;;;9.90;;
76595;SDS011;65485;45.990;18.670;2024-02-26T08:42:20;15.75;;;10.52;;
76595;SDS011;65485;45.990;18.670;2024-02-26T08:45:31;16.90;;;10.25;;
76595;SDS011;65485;45.990;18.670;2024-02-26T08:48:36;14.68;;;10.13;;
76595;SDS011;65485;45.990;18.670;2024-02-26T08:51:42;13.10;;;9.82;;
76595;SDS011;65485;45.990;18.670;2024-02-26T08:54:46;16.63;;;11.13;;
76595;SDS011;65485;45.990;18.670;2024-02-26T08:57:48;12.77;;;10.85;;
76595;SDS011;65485;45.990;18.670;2024-02-26T09:00:51;12.50;;;9.60;;
76595;SDS011;65485;45.990;18.670;2024-02-26T09:03:54;10.55;;;9.20;;
76595;SDS011;65485;45.990;18.670;2024-02-26T09:06:57;10.93;;;8.95;;
76595;SDS011;65485;45.990;18.670;2024-02-26T09:10:00;10.23;;;8.90;;
76595;SDS011;65485;45.990;18.670;2024-02-26T09:13:02;11.00;;;8.80;;
76595;SDS011;65485;45.990;18.670;2024-02-26T09:16:05;10.32;;;8.77;;
76595;SDS011;65485;45.990;18.670;2024-02-26T09:19:08;10.77;;;7.78;;
76595;SDS011;65485;45.990;18.670;2024-02-26T09:22:11;10.15;;;8.40;;
76595;SDS011;65485;45.990;18.670;2024-02-26T09:25:17;9.70;;;7.70;;
76595;SDS011;65485;45.990;18.670;2024-02-26T09:28:20;9.10;;;8.20;;
76595;SDS011;65485;45.990;18.670;2024-02-26T09:31:25;8.65;;;7.75;;
76595;SDS011;65485;45.990;18.670;2024-02-26T09:34:28;8.13;;;7.22;;
76595;SDS011;65485;45.990;18.670;2024-02-26T09:37:31;11.27;;;8.93;;
76595;SDS011;65485;45.990;18.670;2024-02-26T09:40:39;8.43;;;7.53;;
76595;SDS011;65485;45.990;18.670;2024-02-26T09:43:43;8.73;;;7.80;;
76595;SDS011;65485;45.990;18.670;2024-02-26T09:46:48;8.30;;;7.50;;
76595;SDS011;65485;45.990;18.670;2024-02-26T09:50:07;7.47;;;6.03;;
76595;SDS011;65485;45.990;18.670;2024-02-26T09:53:14;6.63;;;5.30;;
76595;SDS011;65485;45.990;18.670;2024-02-26T09:56:20;7.43;;;6.00;;
76595;SDS011;65485;45.990;18.670;2024-02-26T09:59:26;6.20;;;5.60;;
76595;SDS011;65485;45.990;18.670;2024-02-26T10:02:30;6.03;;;5.43;;
76595;SDS011;65485;45.990;18.670;2024-02-26T10:05:33;5.75;;;5.13;;
76595;SDS011;65485;45.990;18.670;2024-02-26T10:08:42;6.80;;;5.68;;
76595;SDS011;65485;45.990;18.670;2024-02-26T10:11:47;6.47;;;5.10;;
76595;SDS011;65485;45.990;18.670;2024-02-26T10:14:51;7.18;;;5.80;;
76595;SDS011;65485;45.990;18.670;2024-02-26T10:17:55;5.68;;;5.07;;
76595;SDS011;65485;45.990;18.670;2024-02-26T10:21:01;6.97;;;4.88;;
76595;SDS011;65485;45.990;18.670;2024-02-26T10:24:13;6.03;;;5.35;;
76595;SDS011;65485;45.990;18.670;2024-02-26T10:27:19;6.47;;;5.30;;
76595;SDS011;65485;45.990;18.670;2024-02-26T10:30:22;7.32;;;5.25;;
76595;SDS011;65485;45.990;18.670;2024-02-26T10:33:26;6.50;;;5.80;;
76595;SDS011;65485;45.990;18.670;2024-02-26T10:36:38;7.35;;;5.47;;
76595;SDS011;65485;45.990;18.670;2024-02-26T10:39:56;6.85;;;5.07;;
76595;SDS011;65485;45.990;18.670;2024-02-26T10:43:06;6.47;;;5.30;;
76595;SDS011;65485;45.990;18.670;2024-02-26T10:46:11;6.88;;;5.50;;
76595;SDS011;65485;45.990;18.670;2024-02-26T10:49:19;7.43;;;5.97;;
76595;SDS011;65485;45.990;18.670;2024-02-26T10:52:27;6.80;;;6.10;;
76595;SDS011;65485;45.990;18.670;2024-02-26T10:55:30;7.22;;;6.03;;
76595;SDS011;65485;45.990;18.670;2024-02-26T10:58:45;5.90;;;5.30;;
76595;SDS011;65485;45.990;18.670;2024-02-26T11:02:05;6.93;;;5.55;;
76595;SDS011;65485;45.990;18.670;2024-02-26T11:05:20;5.93;;;5.32;;
76595;SDS011;65485;45.990;18.670;2024-02-26T11:08:23;8.38;;;6.00;;
76595;SDS011;65485;45.990;18.670;2024-02-26T11:11:31;6.90;;;6.13;;
76595;SDS011;65485;45.990;18.670;2024-02-26T11:14:47;6.23;;;5.63;;
76595;SDS011;65485;45.990;18.670;2024-02-26T11:17:52;6.28;;;5.22;;
76595;SDS011;65485;45.990;18.670;2024-02-26T11:20:58;7.90;;;5.63;;
76595;SDS011;65485;45.990;18.670;2024-02-26T11:27:44;7.07;;;4.90;;
76595;SDS011;65485;45.990;18.670;2024-02-26T11:30:52;7.60;;;5.30;;
76595;SDS011;65485;45.990;18.670;2024-02-26T11:33:55;6.95;;;5.40;;
76595;SDS011;65485;45.990;18.670;2024-02-26T11:37:08;7.20;;;5.47;;
76595;SDS011;65485;45.990;18.670;2024-02-26T11:40:19;5.72;;;5.18;;
76595;SDS011;65485;45.990;18.670;2024-02-26T11:47:13;7.93;;;4.60;;
76595;SDS011;65485;45.990;18.670;2024-02-26T11:50:36;7.63;;;5.20;;
76595;SDS011;65485;45.990;18.670;2024-02-26T11:53:46;5.40;;;4.32;;
76595;SDS011;65485;45.990;18.670;2024-02-26T11:56:51;6.20;;;4.90;;
76595;SDS011;65485;45.990;18.670;2024-02-26T12:00:12;7.28;;;4.22;;
76595;SDS011;65485;45.990;18.670;2024-02-26T12:03:15;4.70;;;4.13;;
76595;SDS011;65485;45.990;18.670;2024-02-26T12:06:20;5.88;;;4.25;;
76595;SDS011;65485;45.990;18.670;2024-02-26T12:09:33;5.72;;;4.00;;
76595;SDS011;65485;45.990;18.670;2024-02-26T12:12:36;5.82;;;4.53;;
76595;SDS011;65485;45.990;18.670;2024-02-26T12:19:22;4.73;;;3.60;;
76595;SDS011;65485;45.990;18.670;2024-02-26T12:22:27;4.68;;;4.13;;
76595;SDS011;65485;45.990;18.670;2024-02-26T12:25:33;4.75;;;4.22;;
76595;SDS011;65485;45.990;18.670;2024-02-26T12:28:40;6.22;;;4.30;;
76595;SDS011;65485;45.990;18.670;2024-02-26T12:31:56;7.10;;;4.40;;
76595;SDS011;65485;45.990;18.670;2024-02-26T12:34:59;6.07;;;4.50;;
76595;SDS011;65485;45.990;18.670;2024-02-26T12:38:02;7.88;;;4.28;;
76595;SDS011;65485;45.990;18.670;2024-02-26T12:41:37;6.07;;;3.83;;
76595;SDS011;65485;45.990;18.670;2024-02-26T12:44:40;4.18;;;3.40;;
76595;SDS011;65485;45.990;18.670;2024-02-26T12:47:56;6.13;;;3.97;;
76595;SDS011;65485;45.990;18.670;2024-02-26T12:51:14;6.10;;;4.30;;
76595;SDS011;65485;45.990;18.670;2024-02-26T12:54:24;3.88;;;2.83;;
76595;SDS011;65485;45.990;18.670;2024-02-26T12:57:32;3.60;;;3.30;;
76595;SDS011;65485;45.990;18.670;2024-02-26T13:00:40;4.93;;;2.88;;
76595;SDS011;65485;45.990;18.670;2024-02-26T13:04:03;3.67;;;2.58;;
76595;SDS011;65485;45.990;18.670;2024-02-26T13:07:09;5.23;;;3.10;;
76595;SDS011;65485;45.990;18.670;2024-02-26T13:10:15;3.95;;;2.90;;
76595;SDS011;65485;45.990;18.670;2024-02-26T13:13:26;6.10;;;3.35;;
76595;SDS011;65485;45.990;18.670;2024-02-26T13:16:29;5.88;;;3.05;;
76595;SDS011;65485;45.990;18.670;2024-02-26T13:19:35;3.45;;;2.88;;
76595;SDS011;65485;45.990;18.670;2024-02-26T13:22:41;4.37;;;2.87;;
76595;SDS011;65485;45.990;18.670;2024-02-26T13:26:13;4.93;;;2.65;;
76595;SDS011;65485;45.990;18.670;2024-02-26T13:29:37;5.82;;;2.75;;
76595;SDS011;65485;45.990;18.670;2024-02-26T13:32:41;4.20;;;2.55;;
76595;SDS011;65485;45.990;18.670;2024-02-26T13:35:46;3.58;;;2.42;;
76595;SDS011;65485;45.990;18.670;2024-02-26T13:38:53;4.17;;;3.00;;
76595;SDS011;65485;45.990;18.670;2024-02-26T13:41:57;6.18;;;3.30;;
76595;SDS011;65485;45.990;18.670;2024-02-26T13:44:59;4.20;;;3.53;;
76595;SDS011;65485;45.990;18.670;2024-02-26T13:48:03;2.90;;;2.53;;
76595;SDS011;65485;45.990;18.670;2024-02-26T13:51:11;5.70;;;2.95;;
76595;SDS011;65485;45.990;18.670;2024-02-26T13:54:19;4.03;;;2.57;;
76595;SDS011;65485;45.990;18.670;2024-02-26T13:57:23;6.30;;;3.60;;
76595;SDS011;65485;45.990;18.670;2024-02-26T14:00:36;4.95;;;3.83;;
76595;SDS011;65485;45.990;18.670;2024-02-26T14:03:41;6.15;;;3.60;;
76595;SDS011;65485;45.990;18.670;2024-02-26T14:06:47;6.13;;;3.80;;
76595;SDS011;65485;45.990;18.670;2024-02-26T14:09:50;4.67;;;3.80;;
76595;SDS011;65485;45.990;18.670;2024-02-26T14:12:54;4.85;;;3.65;;
76595;SDS011;65485;45.990;18.670;2024-02-26T14:16:02;6.05;;;4.10;;
76595;SDS011;65485;45.990;18.670;2024-02-26T14:19:05;4.95;;;3.28;;
76595;SDS011;65485;45.990;18.670;2024-02-26T14:22:11;4.43;;;3.85;;
76595;SDS011;65485;45.990;18.670;2024-02-26T14:25:21;3.63;;;2.70;;
76595;SDS011;65485;45.990;18.670;2024-02-26T14:28:25;5.07;;;3.22;;
76595;SDS011;65485;45.990;18.670;2024-02-26T14:31:38;5.93;;;4.10;;
76595;SDS011;65485;45.990;18.670;2024-02-26T14:34:40;5.70;;;3.97;;
76595;SDS011;65485;45.990;18.670;2024-02-26T14:37:44;5.07;;;3.47;;
76595;SDS011;65485;45.990;18.670;2024-02-26T14:40:57;6.33;;;4.07;;
76595;SDS011;65485;45.990;18.670;2024-02-26T14:43:59;6.40;;;4.50;;
76595;SDS011;65485;45.990;18.670;2024-02-26T14:47:05;5.40;;;4.50;;
76595;SDS011;65485;45.990;18.670;2024-02-26T14:50:09;7.38;;;4.93;;
76595;SDS011;65485;45.990;18.670;2024-02-26T14:53:17;5.90;;;4.88;;
76595;SDS011;65485;45.990;18.670;2024-02-26T14:56:20;5.50;;;4.87;;
76595;SDS011;65485;45.990;18.670;2024-02-26T14:59:22;5.18;;;3.95;;
76595;SDS011;65485;45.990;18.670;2024-02-26T15:02:25;8.63;;;5.20;;
76595;SDS011;65485;45.990;18.670;2024-02-26T15:05:27;7.22;;;5.13;;
76595;SDS011;65485;45.990;18.670;2024-02-26T15:08:31;9.68;;;5.85;;
76595;SDS011;65485;45.990;18.670;2024-02-26T15:11:37;7.07;;;5.10;;
76595;SDS011;65485;45.990;18.670;2024-02-26T15:14:40;5.57;;;4.40;;
76595;SDS011;65485;45.990;18.670;2024-02-26T15:17:43;6.80;;;5.10;;
76595;SDS011;65485;45.990;18.670;2024-02-26T15:20:46;6.68;;;4.88;;
76595;SDS011;65485;45.990;18.670;2024-02-26T15:23:48;6.53;;;4.68;;
76595;SDS011;65485;45.990;18.670;2024-02-26T15:27:08;5.80;;;4.53;;
76595;SDS011;65485;45.990;18.670;2024-02-26T15:30:13;8.75;;;5.57;;
76595;SDS011;65485;45.990;18.670;2024-02-26T15:33:16;6.47;;;4.80;;
76595;SDS011;65485;45.990;18.670;2024-02-26T15:36:20;8.00;;;5.57;;
76595;SDS011;65485;45.990;18.670;2024-02-26T15:39:23;8.20;;;5.90;;
76595;SDS011;65485;45.990;18.670;2024-02-26T15:42:26;9.43;;;5.70;;
76595;SDS011;65485;45.990;18.670;2024-02-26T15:45:29;7.38;;;5.30;;
76595;SDS011;65485;45.990;18.670;2024-02-26T15:48:36;9.20;;;5.50;;
76595;SDS011;65485;45.990;18.670;2024-02-26T15:51:40;8.30;;;5.28;;
76595;SDS011;65485;45.990;18.670;2024-02-26T15:54:43;7.28;;;5.50;;
76595;SDS011;65485;45.990;18.670;2024-02-26T15:57:45;8.30;;;5.63;;
76595;SDS011;65485;45.990;18.670;2024-02-26T16:00:48;8.80;;;6.32;;
76595;SDS011;65485;45.990;18.670;2024-02-26T16:03:52;15.23;;;9.30;;
76595;SDS011;65485;45.990;18.670;2024-02-26T16:06:58;12.70;;;10.25;;
76595;SDS011;65485;45.990;18.670;2024-02-26T16:10:03;17.55;;;13.20;;
76595;SDS011;65485;45.990;18.670;2024-02-26T16:13:06;19.67;;;14.07;;
76595;SDS011;65485;45.990;18.670;2024-02-26T16:16:12;20.38;;;13.73;;
76595;SDS011;65485;45.990;18.670;2024-02-26T16:19:17;19.35;;;14.15;;
76595;SDS011;65485;45.990;18.670;2024-02-26T16:22:22;18.20;;;12.68;;
76595;SDS011;65485;45.990;18.670;2024-02-26T16:25:26;18.38;;;13.93;;
76595;SDS011;65485;45.990;18.670;2024-02-26T16:28:29;17.80;;;12.00;;
76595;SDS011;65485;45.990;18.670;2024-02-26T16:31:31;19.10;;;13.27;;
76595;SDS011;65485;45.990;18.670;2024-02-26T16:34:34;20.10;;;13.30;;
76595;SDS011;65485;45.990;18.670;2024-02-26T16:37:37;22.60;;;16.65;;
76595;SDS011;65485;45.990;18.670;2024-02-26T16:40:40;115.00;;;74.93;;
76595;SDS011;65485;45.990;18.670;2024-02-26T16:43:46;97.63;;;58.63;;
76595;SDS011;65485;45.990;18.670;2024-02-26T16:46:48;84.80;;;48.97;;
76595;SDS011;65485;45.990;18.670;2024-02-26T16:49:51;52.05;;;37.35;;
76595;SDS011;65485;45.990;18.670;2024-02-26T16:52:53;49.38;;;33.72;;
76595;SDS011;65485;45.990;18.670;2024-02-26T16:55:58;41.55;;;25.42;;
76595;SDS011;65485;45.990;18.670;2024-02-26T16:59:04;33.17;;;22.90;;
76595;SDS011;65485;45.990;18.670;2024-02-26T17:02:07;139.80;;;61.67;;
76595;SDS011;65485;45.990;18.670;2024-02-26T17:05:10;99.70;;;45.17;;
76595;SDS011;65485;45.990;18.670;2024-02-26T17:08:12;72.07;;;34.40;;
76595;SDS011;65485;45.990;18.670;2024-02-26T17:11:15;61.72;;;32.65;;
76595;SDS011;65485;45.990;18.670;2024-02-26T17:14:18;39.53;;;24.63;;
76595;SDS011;65485;45.990;18.670;2024-02-26T17:17:20;31.38;;;20.10;;
76595;SDS011;65485;45.990;18.670;2024-02-26T17:20:23;37.95;;;23.35;;
76595;SDS011;65485;45.990;18.670;2024-02-26T17:23:26;43.78;;;25.85;;
76595;SDS011;65485;45.990;18.670;2024-02-26T17:26:29;52.75;;;29.08;;
76595;SDS011;65485;45.990;18.670;2024-02-26T17:29:31;130.53;;;68.57;;
76595;SDS011;65485;45.990;18.670;2024-02-26T17:32:36;152.05;;;78.65;;
76595;SDS011;65485;45.990;18.670;2024-02-26T17:35:39;136.82;;;75.07;;
76595;SDS011;65485;45.990;18.670;2024-02-26T17:38:44;96.57;;;52.30;;
76595;SDS011;65485;45.990;18.670;2024-02-26T17:41:50;85.90;;;46.53;;
76595;SDS011;65485;45.990;18.670;2024-02-26T17:44:53;198.30;;;118.13;;
76595;SDS011;65485;45.990;18.670;2024-02-26T17:47:55;74.38;;;42.53;;
76595;SDS011;65485;45.990;18.670;2024-02-26T17:50:58;59.15;;;34.28;;
76595;SDS011;65485;45.990;18.670;2024-02-26T17:54:01;60.70;;;37.50;;
76595;SDS011;65485;45.990;18.670;2024-02-26T17:57:04;60.05;;;33.75;;
76595;SDS011;65485;45.990;18.670;2024-02-26T18:00:08;86.23;;;49.97;;
76595;SDS011;65485;45.990;18.670;2024-02-26T18:03:11;97.65;;;55.08;;
76595;SDS011;65485;45.990;18.670;2024-02-26T18:06:14;71.72;;;38.50;;
76595;SDS011;65485;45.990;18.670;2024-02-26T18:09:17;109.40;;;49.70;;
76595;SDS011;65485;45.990;18.670;2024-02-26T18:12:20;97.90;;;49.65;;
76595;SDS011;65485;45.990;18.670;2024-02-26T18:15:22;61.97;;;31.87;;
76595;SDS011;65485;45.990;18.670;2024-02-26T18:18:25;58.40;;;32.90;;
76595;SDS011;65485;45.990;18.670;2024-02-26T18:21:28;55.92;;;30.92;;
76595;SDS011;65485;45.990;18.670;2024-02-26T18:24:31;53.15;;;30.00;;
76595;SDS011;65485;45.990;18.670;2024-02-26T18:27:33;59.63;;;34.60;;
76595;SDS011;65485;45.990;18.670;2024-02-26T18:30:38;47.27;;;28.30;;
76595;SDS011;65485;45.990;18.670;2024-02-26T18:33:44;38.03;;;22.58;;
76595;SDS011;65485;45.990;18.670;2024-02-26T18:36:47;41.60;;;24.50;;
76595;SDS011;65485;45.990;18.670;2024-02-26T18:39:50;42.25;;;25.55;;
76595;SDS011;65485;45.990;18.670;2024-02-26T18:42:54;40.13;;;20.92;;
76595;SDS011;65485;45.990;18.670;2024-02-26T18:45:56;40.47;;;21.10;;
76595;SDS011;65485;45.990;18.670;2024-02-26T18:49:01;33.10;;;20.38;;
76595;SDS011;65485;45.990;18.670;2024-02-26T18:52:03;29.60;;;18.95;;
76595;SDS011;65485;45.990;18.670;2024-02-26T18:55:06;34.38;;;18.98;;
76595;SDS011;65485;45.990;18.670;2024-02-26T18:58:09;30.92;;;18.63;;
76595;SDS011;65485;45.990;18.670;2024-02-26T19:01:12;33.10;;;18.17;;
76595;SDS011;65485;45.990;18.670;2024-02-26T19:04:15;26.40;;;15.63;;
76595;SDS011;65485;45.990;18.670;2024-02-26T19:07:19;30.17;;;17.25;;
76595;SDS011;65485;45.990;18.670;2024-02-26T19:10:21;26.55;;;16.60;;
76595;SDS011;65485;45.990;18.670;2024-02-26T19:13:24;35.40;;;18.67;;
76595;SDS011;65485;45.990;18.670;2024-02-26T19:16:28;32.63;;;18.93;;
76595;SDS011;65485;45.990;18.670;2024-02-26T19:19:36;32.58;;;19.45;;
76595;SDS011;65485;45.990;18.670;2024-02-26T19:22:40;29.48;;;20.33;;
76595;SDS011;65485;45.990;18.670;2024-02-26T19:25:44;32.78;;;20.17;;
76595;SDS011;65485;45.990;18.670;2024-02-26T19:28:47;34.47;;;21.60;;
76595;SDS011;65485;45.990;18.670;2024-02-26T19:31:49;32.83;;;20.67;;
